createdAt,value
2023-01-09T00:01:53.937Z,100.00
2023-01-09T00:04:23.469Z,100.00
2023-01-09T00:06:56.226Z,100.00
2023-01-09T00:09:24.976Z,100.00
2023-01-09T00:11:52.864Z,100.00
2023-01-09T00:14:20.446Z,100.00
2023-01-09T00:16:50.202Z,100.00
2023-01-09T00:19:17.387Z,100.00
2023-01-09T00:21:44.421Z,100.00
2023-01-09T00:24:11.558Z,100.00
2023-01-09T00:26:38.691Z,99.60
2023-01-09T00:29:06.058Z,98.96
2023-01-09T00:31:33.170Z,99.23
2023-01-09T00:34:07.690Z,98.19
2023-01-09T00:36:34.795Z,98.54
2023-01-09T00:39:02.049Z,98.05
2023-01-09T00:41:41.835Z,97.44
2023-01-09T00:44:22.794Z,97.77
2023-01-09T00:46:58.879Z,97.93
2023-01-09T00:49:31.408Z,98.09
2023-01-09T00:51:59.416Z,98.53
2023-01-09T00:54:29.035Z,96.95
2023-01-09T00:56:56.696Z,98.93
2023-01-09T00:59:24.013Z,100.00
2023-01-09T01:01:51.358Z,99.45
2023-01-09T01:04:37.207Z,99.94
2023-01-09T01:07:23.058Z,100.00
2023-01-09T01:09:52.422Z,100.00
2023-01-09T01:12:19.685Z,100.00
2023-01-09T01:14:49.087Z,100.00
2023-01-09T01:17:18.590Z,100.00
2023-01-09T01:19:45.701Z,100.00
2023-01-09T01:22:17.195Z,100.00
2023-01-09T01:24:44.414Z,100.00
2023-01-09T01:27:14.503Z,100.00
2023-01-09T01:29:41.563Z,100.00
2023-01-09T01:32:08.812Z,100.00
2023-01-09T01:34:35.876Z,100.00
2023-01-09T01:37:05.984Z,100.00
2023-01-09T01:39:33.124Z,100.00
2023-01-09T01:42:00.491Z,100.00
2023-01-09T01:45:13.186Z,100.00
2023-01-09T01:48:11.267Z,100.00
2023-01-09T01:50:44.776Z,100.00
2023-01-09T01:53:20.541Z,100.00
2023-01-09T01:55:49.008Z,100.00
2023-01-09T01:58:16.944Z,100.00
2023-01-09T02:00:48.310Z,99.97
2023-01-09T02:03:22.875Z,100.00
2023-01-09T02:05:50.296Z,100.00
2023-01-09T02:08:18.034Z,100.00
2023-01-09T02:10:46.399Z,100.00
2023-01-09T02:13:14.437Z,100.00
2023-01-09T02:15:58.835Z,100.00
2023-01-09T02:18:54.252Z,100.00
2023-01-09T02:22:12.010Z,100.00
2023-01-09T02:24:59.055Z,100.00
2023-01-09T02:28:04.295Z,100.00
2023-01-09T02:31:17.740Z,100.00
2023-01-09T02:34:33.002Z,100.00
2023-01-09T02:37:16.740Z,100.00
2023-01-09T02:39:58.014Z,100.00
2023-01-09T02:42:27.181Z,100.00
2023-01-09T02:44:54.337Z,100.00
2023-01-09T02:47:21.252Z,99.95
2023-01-09T02:50:02.470Z,98.48
2023-01-09T02:52:59.791Z,98.83
2023-01-09T02:55:50.928Z,98.11
2023-01-09T02:58:34.572Z,100.00
2023-01-09T03:01:16.659Z,100.00
2023-01-09T03:04:41.095Z,100.00
2023-01-09T03:07:30.714Z,100.00
2023-01-09T03:10:09.089Z,100.00
2023-01-09T03:12:40.650Z,100.00
2023-01-09T03:15:13.052Z,100.00
2023-01-09T03:17:48.614Z,100.00
2023-01-09T03:20:22.261Z,100.00
2023-01-09T03:23:00.830Z,100.00
2023-01-09T03:25:30.494Z,99.41
2023-01-09T03:28:14.277Z,100.00
2023-01-09T03:30:41.326Z,99.60
2023-01-09T03:33:08.501Z,98.83
2023-01-09T03:35:38.371Z,100.00
2023-01-09T03:38:07.310Z,100.00
2023-01-09T03:40:35.199Z,99.42
2023-01-09T03:43:06.762Z,99.80
2023-01-09T03:45:33.937Z,98.75
2023-01-09T03:48:01.060Z,98.11
2023-01-09T03:50:28.192Z,99.71
2023-01-09T03:52:55.275Z,99.40
2023-01-09T03:55:22.339Z,97.73
2023-01-09T03:57:52.724Z,98.27
2023-01-09T04:00:21.109Z,96.79
2023-01-09T04:02:48.473Z,95.93
2023-01-09T04:05:15.611Z,94.79
2023-01-09T04:07:42.692Z,96.96
2023-01-09T04:10:17.262Z,95.32
2023-01-09T04:12:44.393Z,94.94
2023-01-09T04:15:11.775Z,95.46
2023-01-09T04:17:38.838Z,94.34
2023-01-09T04:20:06.754Z,96.03
2023-01-09T04:22:33.852Z,97.68
2023-01-09T04:25:01.102Z,96.15
2023-01-09T04:27:28.215Z,97.57
2023-01-09T04:29:55.270Z,96.41
2023-01-09T04:32:24.884Z,95.90
2023-01-09T04:34:54.161Z,95.93
2023-01-09T04:37:22.904Z,95.88
2023-01-09T04:39:51.583Z,96.50
2023-01-09T04:42:18.691Z,96.36
2023-01-09T04:44:45.825Z,97.20
2023-01-09T04:47:13.739Z,98.04
2023-01-09T04:49:40.858Z,96.62
2023-01-09T04:52:07.909Z,95.73
2023-01-09T04:54:35.025Z,96.03
2023-01-09T04:57:04.616Z,96.21
2023-01-09T04:59:34.185Z,96.47
2023-01-09T05:02:01.499Z,97.88
2023-01-09T05:04:28.874Z,98.78
2023-01-09T05:06:56.310Z,98.26
2023-01-09T05:09:23.508Z,97.70
2023-01-09T05:11:53.383Z,97.00
2023-01-09T05:14:22.735Z,97.61
2023-01-09T05:16:52.123Z,97.76
2023-01-09T05:19:19.490Z,98.01
2023-01-09T05:21:49.002Z,98.56
2023-01-09T05:24:16.208Z,100.00
2023-01-09T05:26:45.765Z,100.00
2023-01-09T05:29:12.936Z,100.00
2023-01-09T05:31:40.097Z,99.07
2023-01-09T05:34:07.246Z,100.00
2023-01-09T05:36:36.790Z,100.00
2023-01-09T05:39:05.714Z,99.79
2023-01-09T05:41:32.812Z,99.43
2023-01-09T05:44:02.417Z,100.00
2023-01-09T05:46:29.476Z,99.99
2023-01-09T05:48:56.622Z,99.46
2023-01-09T05:51:23.797Z,100.00
2023-01-09T05:53:50.947Z,100.00
2023-01-09T05:56:17.991Z,99.57
2023-01-09T05:58:45.050Z,99.85
2023-01-09T06:01:12.305Z,99.67
2023-01-09T06:03:39.425Z,100.00
2023-01-09T06:06:07.120Z,100.00
2023-01-09T06:08:34.329Z,100.00
2023-01-09T06:11:01.594Z,100.00
2023-01-09T06:13:28.942Z,100.00
2023-01-09T06:15:56.131Z,100.00
2023-01-09T06:18:23.431Z,99.05
2023-01-09T06:20:50.672Z,98.57
2023-01-09T06:23:17.825Z,98.26
2023-01-09T06:25:47.540Z,99.65
2023-01-09T06:28:14.821Z,100.00
2023-01-09T06:30:41.964Z,100.00
2023-01-09T06:33:09.025Z,99.90
2023-01-09T06:35:36.139Z,99.44
2023-01-09T06:38:05.692Z,100.00
2023-01-09T06:40:32.904Z,100.00
2023-01-09T06:43:00.043Z,100.00
2023-01-09T06:45:27.289Z,100.00
2023-01-09T06:47:59.382Z,100.00
2023-01-09T06:50:28.712Z,100.00
2023-01-09T06:52:55.900Z,100.00
2023-01-09T06:55:23.301Z,99.50
2023-01-09T06:57:50.477Z,99.75
2023-01-09T07:00:18.326Z,97.35
2023-01-09T07:02:47.851Z,97.61
2023-01-09T07:05:15.248Z,97.42
2023-01-09T07:07:42.435Z,98.35
2023-01-09T07:10:11.143Z,98.52
2023-01-09T07:12:40.952Z,98.40
2023-01-09T07:15:08.989Z,99.50
2023-01-09T07:17:36.327Z,99.13
2023-01-09T07:20:04.544Z,99.21
2023-01-09T07:22:31.675Z,100.00
2023-01-09T07:24:58.892Z,100.00
2023-01-09T07:27:26.115Z,100.00
2023-01-09T07:29:55.783Z,99.59
2023-01-09T07:32:22.943Z,99.54
2023-01-09T07:34:51.664Z,99.80
2023-01-09T07:37:19.418Z,99.92
2023-01-09T07:39:46.728Z,99.68
2023-01-09T07:42:14.087Z,100.00
2023-01-09T07:44:41.444Z,100.00
2023-01-09T07:47:08.765Z,100.00
2023-01-09T07:49:38.400Z,100.00
2023-01-09T07:52:06.210Z,100.00
2023-01-09T07:54:33.525Z,100.00
2023-01-09T07:57:03.975Z,100.00
2023-01-09T07:59:31.100Z,100.00
2023-01-09T08:01:58.609Z,100.00
2023-01-09T08:04:25.822Z,99.90
2023-01-09T08:06:53.098Z,100.00
2023-01-09T08:09:20.236Z,100.00
2023-01-09T08:11:47.480Z,100.00
2023-01-09T08:14:14.677Z,100.00
2023-01-09T08:16:41.928Z,100.00
2023-01-09T08:19:12.144Z,100.00
2023-01-09T08:21:40.065Z,100.00
2023-01-09T08:24:07.765Z,99.28
2023-01-09T08:26:36.835Z,98.58
2023-01-09T08:29:06.637Z,98.13
2023-01-09T08:31:33.840Z,97.74
2023-01-09T08:34:03.335Z,98.69
2023-01-09T08:36:32.655Z,98.12
2023-01-09T08:38:59.725Z,97.85
2023-01-09T08:41:47.620Z,97.03
2023-01-09T08:44:33.478Z,96.31
2023-01-09T08:47:06.634Z,95.90
2023-01-09T08:49:35.959Z,95.30
2023-01-09T08:52:04.516Z,95.77
2023-01-09T08:54:31.931Z,97.06
2023-01-09T08:57:01.293Z,95.21
2023-01-09T08:59:28.433Z,97.41
2023-01-09T09:01:55.649Z,96.85
2023-01-09T09:04:25.946Z,95.67
2023-01-09T09:06:53.056Z,96.31
2023-01-09T09:09:20.219Z,96.22
2023-01-09T09:11:50.318Z,97.53
2023-01-09T09:14:35.865Z,96.35
2023-01-09T09:17:03.071Z,94.97
2023-01-09T09:19:30.146Z,94.31
2023-01-09T09:21:57.233Z,93.49
2023-01-09T09:24:24.363Z,92.74
2023-01-09T09:26:51.596Z,92.60
2023-01-09T09:29:18.715Z,93.53
2023-01-09T09:31:48.138Z,94.82
2023-01-09T09:34:15.320Z,95.01
2023-01-09T09:36:42.473Z,95.08
2023-01-09T09:39:09.654Z,94.02
2023-01-09T09:42:28.793Z,97.53
2023-01-09T09:45:05.986Z,96.48
2023-01-09T09:48:18.759Z,95.89
2023-01-09T09:51:26.383Z,94.49
2023-01-09T09:54:25.876Z,97.44
2023-01-09T09:57:01.541Z,95.91
2023-01-09T09:59:38.388Z,96.68
2023-01-09T10:02:29.826Z,96.37
2023-01-09T10:05:17.222Z,95.16
2023-01-09T10:07:51.023Z,96.05
2023-01-09T10:10:37.471Z,96.68
2023-01-09T10:13:24.990Z,97.74
2023-01-09T10:16:22.964Z,97.28
2023-01-09T10:19:27.426Z,97.33
2023-01-09T10:22:51.563Z,96.90
2023-01-09T10:25:45.989Z,95.76
2023-01-09T10:28:14.066Z,98.52
2023-01-09T10:31:01.173Z,96.94
2023-01-09T10:34:06.914Z,96.38
2023-01-09T10:37:13.573Z,97.98
2023-01-09T10:39:59.305Z,96.04
2023-01-09T10:42:40.944Z,96.78
2023-01-09T10:45:22.534Z,97.05
2023-01-09T10:47:49.847Z,96.87
2023-01-09T10:50:24.212Z,97.31
2023-01-09T10:52:54.579Z,96.75
2023-01-09T10:55:39.866Z,96.83
2023-01-09T10:58:17.210Z,98.18
2023-01-09T11:00:45.525Z,98.95
2023-01-09T11:03:15.398Z,99.98
2023-01-09T11:05:43.460Z,99.13
2023-01-09T11:08:13.183Z,99.71
2023-01-09T11:10:48.105Z,100.00
2023-01-09T11:13:29.414Z,100.00
2023-01-09T11:16:07.235Z,100.00
2023-01-09T11:18:38.818Z,100.00
2023-01-09T11:21:31.074Z,100.00
2023-01-09T11:24:24.010Z,100.00
2023-01-09T11:26:54.136Z,100.00
2023-01-09T11:29:24.706Z,100.00
2023-01-09T11:31:58.264Z,100.00
2023-01-09T11:34:32.747Z,100.00
2023-01-09T11:37:11.797Z,100.00
2023-01-09T11:39:48.140Z,99.38
2023-01-09T11:42:43.392Z,98.69
2023-01-09T11:45:32.815Z,100.00
2023-01-09T11:48:00.221Z,100.00
2023-01-09T11:50:30.255Z,100.00
2023-01-09T11:53:17.945Z,99.84
2023-01-09T11:56:04.641Z,100.00
2023-01-09T11:58:35.206Z,99.76
2023-01-09T12:01:36.265Z,98.93
2023-01-09T12:04:19.800Z,99.90
2023-01-09T12:07:14.882Z,99.07
2023-01-09T12:10:01.863Z,99.63
2023-01-09T12:13:01.019Z,100.00
2023-01-09T12:16:03.254Z,100.00
2023-01-09T12:19:19.978Z,98.87
2023-01-09T12:22:20.073Z,100.00
2023-01-09T12:25:23.632Z,98.99
2023-01-09T12:28:05.958Z,99.31
2023-01-09T12:30:41.857Z,98.54
2023-01-09T12:34:11.713Z,99.19
2023-01-09T12:36:59.699Z,100.00
2023-01-09T12:40:02.986Z,100.00
2023-01-09T12:42:53.290Z,98.12
2023-01-09T12:45:38.799Z,97.67
2023-01-09T12:48:36.465Z,96.80
2023-01-09T12:51:29.908Z,96.54
2023-01-09T12:54:41.011Z,97.09
2023-01-09T12:57:24.607Z,96.31
2023-01-09T13:00:21.831Z,95.88
2023-01-09T13:03:15.616Z,95.30
2023-01-09T13:05:53.557Z,94.98
2023-01-09T13:08:38.912Z,93.84
2023-01-09T13:11:47.793Z,94.23
2023-01-09T13:14:16.114Z,95.79
2023-01-09T13:16:48.948Z,94.99
2023-01-09T13:19:37.078Z,96.40
2023-01-09T13:22:07.433Z,97.72
2023-01-09T13:24:51.621Z,98.09
2023-01-09T13:27:22.815Z,96.81
2023-01-09T13:30:08.223Z,96.68
2023-01-09T13:32:56.593Z,96.32
2023-01-09T13:35:23.735Z,96.55
2023-01-09T13:37:53.525Z,97.62
2023-01-09T13:40:20.466Z,95.78
2023-01-09T13:43:09.994Z,95.66
2023-01-09T13:45:39.571Z,96.70
2023-01-09T13:48:10.034Z,98.50
2023-01-09T13:50:42.210Z,99.16
2023-01-09T13:53:18.646Z,99.17
2023-01-09T13:55:58.526Z,100.00
2023-01-09T13:58:28.782Z,99.27
2023-01-09T14:00:59.767Z,98.41
2023-01-09T14:03:38.078Z,99.12
2023-01-09T14:06:13.280Z,99.33
2023-01-09T14:08:44.609Z,99.54
2023-01-09T14:11:19.888Z,99.21
2023-01-09T14:13:52.415Z,99.06
2023-01-09T14:16:25.542Z,99.53
2023-01-09T14:19:06.056Z,99.13
2023-01-09T14:21:55.358Z,100.00
2023-01-09T14:24:46.691Z,100.00
2023-01-09T14:28:04.001Z,99.60
2023-01-09T14:30:34.019Z,99.27
2023-01-09T14:33:19.523Z,99.97
2023-01-09T14:36:18.739Z,99.97
2023-01-09T14:38:59.160Z,99.72
2023-01-09T14:41:58.398Z,99.87
2023-01-09T14:44:52.434Z,100.00
2023-01-09T14:47:49.275Z,99.93
2023-01-09T14:50:32.222Z,99.29
2023-01-09T14:53:22.490Z,100.00
2023-01-09T14:55:58.394Z,100.00
2023-01-09T14:58:33.174Z,100.00
2023-01-09T15:01:10.784Z,100.00
2023-01-09T15:03:53.578Z,100.00
2023-01-09T15:06:24.339Z,100.00
2023-01-09T15:09:34.531Z,100.00
2023-01-09T15:12:09.533Z,100.00
2023-01-09T15:14:45.807Z,100.00
2023-01-09T15:17:36.688Z,100.00
2023-01-09T15:20:07.544Z,100.00
2023-01-09T15:22:37.434Z,100.00
2023-01-09T15:25:39.998Z,100.00
2023-01-09T15:28:30.882Z,100.00
2023-01-09T15:31:10.861Z,100.00
2023-01-09T15:33:40.709Z,100.00
2023-01-09T15:36:31.988Z,100.00
2023-01-09T15:39:00.300Z,100.00
2023-01-09T15:41:48.889Z,100.00
2023-01-09T15:44:28.211Z,100.00
2023-01-09T15:47:03.444Z,100.00
2023-01-09T15:49:31.854Z,100.00
2023-01-09T15:52:00.469Z,100.00
2023-01-09T15:54:33.669Z,100.00
2023-01-09T15:57:25.871Z,100.00
2023-01-09T15:59:55.329Z,100.00
2023-01-09T16:02:43.825Z,100.00
2023-01-09T16:05:17.290Z,100.00
2023-01-09T16:07:50.326Z,100.00
2023-01-09T16:10:49.020Z,100.00
2023-01-09T16:13:16.494Z,100.00
2023-01-09T16:15:47.030Z,100.00
2023-01-09T16:18:16.807Z,100.00
2023-01-09T16:20:45.681Z,100.00
2023-01-09T16:23:32.317Z,100.00
2023-01-09T16:26:24.072Z,100.00
2023-01-09T16:28:53.589Z,100.00
2023-01-09T16:31:33.555Z,100.00
2023-01-09T16:34:07.273Z,100.00
2023-01-09T16:36:36.125Z,100.00
2023-01-09T16:39:04.192Z,100.00
2023-01-09T16:41:50.355Z,100.00
2023-01-09T16:44:23.861Z,100.00
2023-01-09T16:46:51.081Z,100.00
2023-01-09T16:49:29.011Z,100.00
2023-01-09T16:51:57.106Z,100.00
2023-01-09T16:54:24.307Z,100.00
2023-01-09T16:56:54.547Z,100.00
2023-01-09T16:59:28.227Z,100.00
2023-01-09T17:01:55.729Z,100.00
2023-01-09T17:04:26.606Z,100.00
2023-01-09T17:06:56.099Z,100.00
2023-01-09T17:09:25.860Z,100.00
2023-01-09T17:11:56.823Z,100.00
2023-01-09T17:14:24.638Z,100.00
2023-01-09T17:16:51.742Z,100.00
2023-01-09T17:19:20.694Z,100.00
2023-01-09T17:21:48.179Z,100.00
2023-01-09T17:24:34.130Z,100.00
2023-01-09T17:27:21.078Z,100.00
2023-01-09T17:29:48.563Z,100.00
2023-01-09T17:32:19.408Z,100.00
2023-01-09T17:34:46.688Z,100.00
2023-01-09T17:37:19.376Z,100.00
2023-01-09T17:39:46.655Z,100.00
2023-01-09T17:42:16.048Z,100.00
2023-01-09T17:44:43.241Z,100.00
2023-01-09T17:47:17.787Z,100.00
2023-01-09T17:49:47.835Z,100.00
2023-01-09T17:52:15.059Z,100.00
2023-01-09T17:54:43.152Z,99.62
2023-01-09T17:57:17.495Z,100.00
2023-01-09T17:59:47.783Z,98.95
2023-01-09T18:02:19.466Z,98.84
2023-01-09T18:04:46.712Z,99.17
2023-01-09T18:07:18.308Z,98.16
2023-01-09T18:09:45.579Z,98.34
2023-01-09T18:12:15.271Z,98.55
2023-01-09T18:14:42.952Z,98.65
2023-01-09T18:17:15.140Z,98.28
2023-01-09T18:19:42.577Z,97.76
2023-01-09T18:22:09.741Z,98.83
2023-01-09T18:24:39.752Z,98.58
2023-01-09T18:27:06.915Z,99.59
2023-01-09T18:29:34.075Z,98.39
2023-01-09T18:32:01.271Z,97.91
2023-01-09T18:34:28.324Z,98.29
2023-01-09T18:36:55.486Z,99.10
2023-01-09T18:39:23.048Z,98.43
2023-01-09T18:41:50.839Z,98.29
2023-01-09T18:44:20.212Z,98.67
2023-01-09T18:46:50.272Z,98.90
2023-01-09T18:49:19.432Z,98.63
2023-01-09T18:51:46.560Z,98.84
2023-01-09T18:54:17.800Z,98.81
2023-01-09T18:56:47.044Z,98.87
2023-01-09T18:59:14.118Z,98.78
2023-01-09T19:01:41.474Z,100.00
2023-01-09T19:04:08.663Z,100.00
2023-01-09T19:06:38.394Z,100.00
2023-01-09T19:09:07.925Z,100.00
2023-01-09T19:11:37.172Z,100.00
2023-01-09T19:14:04.601Z,100.00
2023-01-09T19:16:34.290Z,100.00
2023-01-09T19:19:02.814Z,99.79
2023-01-09T19:21:30.067Z,100.00
2023-01-09T19:23:58.877Z,100.00
2023-01-09T19:26:28.444Z,100.00
2023-01-09T19:28:57.819Z,100.00
2023-01-09T19:31:30.307Z,100.00
2023-01-09T19:33:58.808Z,100.00
2023-01-09T19:36:27.001Z,100.00
2023-01-09T19:39:02.684Z,100.00
2023-01-09T19:41:30.492Z,100.00
2023-01-09T19:43:59.675Z,100.00
2023-01-09T19:46:29.654Z,100.00
2023-01-09T19:48:59.020Z,100.00
2023-01-09T19:51:28.941Z,100.00
2023-01-09T19:56:30.780Z,100.00
2023-01-09T19:59:04.024Z,100.00
2023-01-09T20:01:37.280Z,100.00
2023-01-09T20:04:13.687Z,100.00
2023-01-09T20:06:45.387Z,100.00
2023-01-09T20:09:15.335Z,100.00
2023-01-09T20:11:44.847Z,100.00
2023-01-09T20:14:14.407Z,100.00
2023-01-09T20:16:42.496Z,100.00
2023-01-09T20:19:15.269Z,100.00
2023-01-09T20:21:42.995Z,100.00
2023-01-09T20:24:15.226Z,100.00
2023-01-09T20:26:42.313Z,100.00
2023-01-09T20:29:12.796Z,100.00
2023-01-09T20:31:40.030Z,100.00
2023-01-09T20:34:07.251Z,100.00
2023-01-09T20:36:35.165Z,99.98
2023-01-09T20:39:06.989Z,100.00
2023-01-09T20:41:36.954Z,100.00
2023-01-09T20:44:08.150Z,100.00
2023-01-09T20:46:42.854Z,100.00
2023-01-09T20:49:13.752Z,100.00
2023-01-09T20:51:48.648Z,100.00
2023-01-09T20:54:17.375Z,100.00
2023-01-09T20:56:44.679Z,99.90
2023-01-09T20:59:17.108Z,99.27
2023-01-09T21:01:44.421Z,99.41
2023-01-09T21:04:11.684Z,99.88
2023-01-09T21:06:40.305Z,99.79
2023-01-09T21:09:07.570Z,99.17
2023-01-09T21:11:34.878Z,99.38
2023-01-09T21:14:01.953Z,99.38
2023-01-09T21:16:29.564Z,99.61
2023-01-09T21:18:56.769Z,100.00
2023-01-09T21:21:27.604Z,99.77
2023-01-09T21:24:00.942Z,99.48
2023-01-09T21:26:30.710Z,99.18
2023-01-09T21:29:00.941Z,99.15
2023-01-09T21:31:34.954Z,99.37
2023-01-09T21:34:08.193Z,100.00
2023-01-09T21:36:37.885Z,99.99
2023-01-09T21:39:08.605Z,99.98
2023-01-09T21:41:54.631Z,100.00
2023-01-09T21:44:40.440Z,100.00
2023-01-09T21:47:07.600Z,100.00
2023-01-09T21:49:36.140Z,100.00
2023-01-09T21:52:04.756Z,100.00
2023-01-09T21:54:33.067Z,100.00
2023-01-09T21:57:03.026Z,100.00
2023-01-09T21:59:30.207Z,99.92
2023-01-09T22:01:58.128Z,99.15
2023-01-09T22:04:28.495Z,99.10
2023-01-09T22:06:56.413Z,99.34
2023-01-09T22:09:23.652Z,99.64
2023-01-09T22:11:52.280Z,100.00
2023-01-09T22:14:22.782Z,99.66
2023-01-09T22:16:49.871Z,98.93
2023-01-09T22:19:20.521Z,98.17
2023-01-09T22:21:48.764Z,97.71
2023-01-09T22:24:21.765Z,97.88
2023-01-09T22:26:49.100Z,97.79
2023-01-09T22:29:17.466Z,97.98
2023-01-09T22:31:44.613Z,97.45
2023-01-09T22:34:17.399Z,97.14
2023-01-09T22:36:47.745Z,97.44
2023-01-09T22:39:19.354Z,97.27
2023-01-09T22:41:52.572Z,97.07
2023-01-09T22:44:19.769Z,97.17
2023-01-09T22:46:49.429Z,97.40
2023-01-09T22:49:16.519Z,97.20
2023-01-09T22:51:47.117Z,96.63
2023-01-09T22:54:14.329Z,97.48
2023-01-09T22:56:43.960Z,98.08
2023-01-09T22:59:11.024Z,96.91
2023-01-09T23:01:38.216Z,96.57
2023-01-09T23:04:07.866Z,96.47
2023-01-09T23:06:35.089Z,97.23
2023-01-09T23:09:04.747Z,96.42
2023-01-09T23:11:50.683Z,97.20
2023-01-09T23:14:18.282Z,96.41
2023-01-09T23:16:45.448Z,96.39
2023-01-09T23:19:15.813Z,97.12
2023-01-09T23:21:44.643Z,96.83
2023-01-09T23:24:16.325Z,97.38
2023-01-09T23:26:44.628Z,96.53
2023-01-09T23:29:13.051Z,97.06
2023-01-09T23:31:41.340Z,96.27
2023-01-09T23:34:09.229Z,97.00
2023-01-09T23:36:36.434Z,98.25
2023-01-09T23:39:08.776Z,98.63
2023-01-09T23:41:55.645Z,99.14
2023-01-09T23:44:23.284Z,98.91
2023-01-09T23:46:50.414Z,99.65
2023-01-09T23:49:20.126Z,100.00
2023-01-09T23:51:47.346Z,100.00
2023-01-09T23:54:20.902Z,100.00
2023-01-09T23:56:48.062Z,100.00
2023-01-09T23:59:17.586Z,100.00
